sensor_id;sensor_type;location;lat;lon;timestamp;temperature;humidity
32348;DHT22;18821;44.800;10.326;2022-12-18T00:01:58;5.60;99.90
32348;DHT22;18821;44.800;10.326;2022-12-18T00:04:27;5.70;99.90
32348;DHT22;18821;44.800;10.326;2022-12-18T00:06:53;5.60;99.90
32348;DHT22;18821;44.800;10.326;2022-12-18T00:09:20;5.60;99.90
32348;DHT22;18821;44.800;10.326;2022-12-18T00:11:46;5.50;99.90
32348;DHT22;18821;44.800;10.326;2022-12-18T00:14:13;5.50;99.90
32348;DHT22;18821;44.800;10.326;2022-12-18T00:16:39;5.40;99.90
32348;DHT22;18821;44.800;10.326;2022-12-18T00:19:06;5.40;99.90
32348;DHT22;18821;44.800;10.326;2022-12-18T00:21:33;5.40;99.90
32348;DHT22;18821;44.800;10.326;2022-12-18T00:24:00;5.40;99.90
32348;DHT22;18821;44.800;10.326;2022-12-18T00:26:29;5.50;99.90
32348;DHT22;18821;44.800;10.326;2022-12-18T00:29:00;5.50;99.90
32348;DHT22;18821;44.800;10.326;2022-12-18T00:31:27;5.50;99.90
32348;DHT22;18821;44.800;10.326;2022-12-18T00:33:56;5.50;99.90
32348;DHT22;18821;44.800;10.326;2022-12-18T00:36:28;5.60;99.90
32348;DHT22;18821;44.800;10.326;2022-12-18T00:38:56;5.70;99.90
32348;DHT22;18821;44.800;10.326;2022-12-18T00:41:23;5.70;99.90
32348;DHT22;18821;44.800;10.326;2022-12-18T00:44:10;5.70;99.90
32348;DHT22;18821;44.800;10.326;2022-12-18T00:46:36;5.70;99.90
32348;DHT22;18821;44.800;10.326;2022-12-18T00:49:03;5.70;99.90
32348;DHT22;18821;44.800;10.326;2022-12-18T00:51:29;5.70;99.90
32348;DHT22;18821;44.800;10.326;2022-12-18T00:53:55;5.70;99.90
32348;DHT22;18821;44.800;10.326;2022-12-18T00:56:21;5.70;99.90
32348;DHT22;18821;44.800;10.326;2022-12-18T00:58:47;5.70;99.90
32348;DHT22;18821;44.800;10.326;2022-12-18T01:01:13;5.70;99.90
32348;DHT22;18821;44.800;10.326;2022-12-18T01:03:39;5.70;99.90
32348;DHT22;18821;44.800;10.326;2022-12-18T01:06:08;5.70;99.90
32348;DHT22;18821;44.800;10.326;2022-12-18T01:08:34;5.70;99.90
32348;DHT22;18821;44.800;10.326;2022-12-18T01:11:06;5.70;99.90
32348;DHT22;18821;44.800;10.326;2022-12-18T01:13:32;5.80;99.90
32348;DHT22;18821;44.800;10.326;2022-12-18T01:15:58;5.80;99.90
32348;DHT22;18821;44.800;10.326;2022-12-18T01:18:24;5.80;99.90
32348;DHT22;18821;44.800;10.326;2022-12-18T01:20:50;5.80;99.90
32348;DHT22;18821;44.800;10.326;2022-12-18T01:23:16;5.80;99.90
32348;DHT22;18821;44.800;10.326;2022-12-18T01:25:42;5.80;99.90
32348;DHT22;18821;44.800;10.326;2022-12-18T01:28:09;5.80;99.90
32348;DHT22;18821;44.800;10.326;2022-12-18T01:30:35;5.90;99.90
32348;DHT22;18821;44.800;10.326;2022-12-18T01:33:01;5.90;99.90
32348;DHT22;18821;44.800;10.326;2022-12-18T01:35:27;5.90;99.90
32348;DHT22;18821;44.800;10.326;2022-12-18T01:37:56;5.90;99.90
32348;DHT22;18821;44.800;10.326;2022-12-18T01:40:22;5.90;99.90
32348;DHT22;18821;44.800;10.326;2022-12-18T01:42:52;5.90;99.90
32348;DHT22;18821;44.800;10.326;2022-12-18T01:47:50;5.80;99.90
32348;DHT22;18821;44.800;10.326;2022-12-18T01:50:33;5.70;99.90
32348;DHT22;18821;44.800;10.326;2022-12-18T01:53:14;5.60;99.90
32348;DHT22;18821;44.800;10.326;2022-12-18T01:55:47;5.50;99.90
32348;DHT22;18821;44.800;10.326;2022-12-18T01:58:14;5.50;99.90
32348;DHT22;18821;44.800;10.326;2022-12-18T02:00:41;5.60;99.90
32348;DHT22;18821;44.800;10.326;2022-12-18T02:03:07;5.50;99.90
32348;DHT22;18821;44.800;10.326;2022-12-18T02:11:08;5.30;99.90
32348;DHT22;18821;44.800;10.326;2022-12-18T02:16:25;5.10;99.90
32348;DHT22;18821;44.800;10.326;2022-12-18T02:18:58;5.00;99.90
32348;DHT22;18821;44.800;10.326;2022-12-18T02:21:51;4.90;99.90
32348;DHT22;18821;44.800;10.326;2022-12-18T02:24:35;4.90;99.90
32348;DHT22;18821;44.800;10.326;2022-12-18T02:27:05;4.80;99.90
32348;DHT22;18821;44.800;10.326;2022-12-18T02:29:43;4.80;99.90
32348;DHT22;18821;44.800;10.326;2022-12-18T02:32:24;4.80;99.90
32348;DHT22;18821;44.800;10.326;2022-12-18T02:34:53;4.70;99.90
32348;DHT22;18821;44.800;10.326;2022-12-18T02:37:23;4.70;99.90
32348;DHT22;18821;44.800;10.326;2022-12-18T02:39:54;4.70;99.90
32348;DHT22;18821;44.800;10.326;2022-12-18T02:42:21;4.60;99.90
32348;DHT22;18821;44.800;10.326;2022-12-18T02:44:50;4.70;99.90
32348;DHT22;18821;44.800;10.326;2022-12-18T02:47:22;4.60;99.90
32348;DHT22;18821;44.800;10.326;2022-12-18T02:58:26;4.40;99.90
32348;DHT22;18821;44.800;10.326;2022-12-18T03:01:07;4.40;99.90
32348;DHT22;18821;44.800;10.326;2022-12-18T03:03:46;4.30;99.90
32348;DHT22;18821;44.800;10.326;2022-12-18T03:06:40;4.40;99.90
32348;DHT22;18821;44.800;10.326;2022-12-18T03:09:10;4.40;99.90
32348;DHT22;18821;44.800;10.326;2022-12-18T03:11:41;4.30;99.90
32348;DHT22;18821;44.800;10.326;2022-12-18T03:14:30;4.40;99.90
32348;DHT22;18821;44.800;10.326;2022-12-18T03:17:01;4.30;99.90
32348;DHT22;18821;44.800;10.326;2022-12-18T03:19:32;4.30;99.90
32348;DHT22;18821;44.800;10.326;2022-12-18T03:22:02;4.10;99.90
32348;DHT22;18821;44.800;10.326;2022-12-18T03:24:40;4.10;99.90
32348;DHT22;18821;44.800;10.326;2022-12-18T03:27:12;4.00;99.90
32348;DHT22;18821;44.800;10.326;2022-12-18T03:29:47;3.90;99.90
32348;DHT22;18821;44.800;10.326;2022-12-18T03:32:25;3.90;99.90
32348;DHT22;18821;44.800;10.326;2022-12-18T03:34:54;3.90;99.90
32348;DHT22;18821;44.800;10.326;2022-12-18T03:37:22;3.80;99.90
32348;DHT22;18821;44.800;10.326;2022-12-18T03:39:48;3.80;99.90
32348;DHT22;18821;44.800;10.326;2022-12-18T03:42:30;3.90;99.90
32348;DHT22;18821;44.800;10.326;2022-12-18T03:45:13;3.90;99.90
32348;DHT22;18821;44.800;10.326;2022-12-18T03:48:03;3.90;99.90
32348;DHT22;18821;44.800;10.326;2022-12-18T03:56:00;3.90;99.90
32348;DHT22;18821;44.800;10.326;2022-12-18T03:58:35;4.00;99.90
32348;DHT22;18821;44.800;10.326;2022-12-18T04:01:37;4.10;99.90
32348;DHT22;18821;44.800;10.326;2022-12-18T04:04:05;4.10;99.90
32348;DHT22;18821;44.800;10.326;2022-12-18T04:06:35;4.10;99.90
32348;DHT22;18821;44.800;10.326;2022-12-18T04:09:02;4.10;99.90
32348;DHT22;18821;44.800;10.326;2022-12-18T04:11:32;4.10;99.90
32348;DHT22;18821;44.800;10.326;2022-12-18T04:13:59;4.10;99.90
32348;DHT22;18821;44.800;10.326;2022-12-18T04:16:25;4.00;99.90
32348;DHT22;18821;44.800;10.326;2022-12-18T04:18:55;4.00;99.90
32348;DHT22;18821;44.800;10.326;2022-12-18T04:21:24;4.10;99.90
32348;DHT22;18821;44.800;10.326;2022-12-18T04:23:51;4.20;99.90
32348;DHT22;18821;44.800;10.326;2022-12-18T04:26:20;4.30;99.90
32348;DHT22;18821;44.800;10.326;2022-12-18T04:29:06;4.40;99.90
32348;DHT22;18821;44.800;10.326;2022-12-18T04:31:32;4.40;99.90
32348;DHT22;18821;44.800;10.326;2022-12-18T04:33:58;4.50;99.90
32348;DHT22;18821;44.800;10.326;2022-12-18T04:36:25;4.50;99.90
32348;DHT22;18821;44.800;10.326;2022-12-18T04:38:52;4.60;99.90
32348;DHT22;18821;44.800;10.326;2022-12-18T04:41:18;4.50;99.90
32348;DHT22;18821;44.800;10.326;2022-12-18T04:43:47;4.50;99.90
32348;DHT22;18821;44.800;10.326;2022-12-18T04:46:13;4.50;99.90
32348;DHT22;18821;44.800;10.326;2022-12-18T04:48:40;4.50;99.90
32348;DHT22;18821;44.800;10.326;2022-12-18T04:51:06;4.40;99.90
32348;DHT22;18821;44.800;10.326;2022-12-18T04:53:33;4.30;99.90
32348;DHT22;18821;44.800;10.326;2022-12-18T04:56:17;4.30;99.90
32348;DHT22;18821;44.800;10.326;2022-12-18T04:58:44;4.40;99.90
32348;DHT22;18821;44.800;10.326;2022-12-18T05:01:12;4.30;99.90
32348;DHT22;18821;44.800;10.326;2022-12-18T05:03:38;4.20;99.90
32348;DHT22;18821;44.800;10.326;2022-12-18T05:06:05;4.20;99.90
32348;DHT22;18821;44.800;10.326;2022-12-18T05:08:32;4.20;99.90
32348;DHT22;18821;44.800;10.326;2022-12-18T05:11:04;4.20;99.90
32348;DHT22;18821;44.800;10.326;2022-12-18T05:13:31;4.30;99.90
32348;DHT22;18821;44.800;10.326;2022-12-18T05:15:57;4.30;99.90
32348;DHT22;18821;44.800;10.326;2022-12-18T05:18:24;4.40;99.90
32348;DHT22;18821;44.800;10.326;2022-12-18T05:20:51;4.50;99.90
32348;DHT22;18821;44.800;10.326;2022-12-18T05:23:17;4.50;99.90
32348;DHT22;18821;44.800;10.326;2022-12-18T05:25:50;4.50;99.90
32348;DHT22;18821;44.800;10.326;2022-12-18T05:28:16;4.50;99.90
32348;DHT22;18821;44.800;10.326;2022-12-18T05:30:46;4.40;99.90
32348;DHT22;18821;44.800;10.326;2022-12-18T05:33:12;4.50;99.90
32348;DHT22;18821;44.800;10.326;2022-12-18T05:35:38;4.50;99.90
32348;DHT22;18821;44.800;10.326;2022-12-18T05:38:04;4.50;99.90
32348;DHT22;18821;44.800;10.326;2022-12-18T05:40:30;4.50;99.90
32348;DHT22;18821;44.800;10.326;2022-12-18T05:42:56;4.50;99.90
32348;DHT22;18821;44.800;10.326;2022-12-18T05:45:22;4.50;99.90
32348;DHT22;18821;44.800;10.326;2022-12-18T05:47:48;4.30;99.90
32348;DHT22;18821;44.800;10.326;2022-12-18T05:50:14;4.20;99.90
32348;DHT22;18821;44.800;10.326;2022-12-18T05:52:40;4.10;99.90
32348;DHT22;18821;44.800;10.326;2022-12-18T05:55:06;4.00;99.90
32348;DHT22;18821;44.800;10.326;2022-12-18T05:57:32;4.00;99.90
32348;DHT22;18821;44.800;10.326;2022-12-18T05:59:58;3.90;99.90
32348;DHT22;18821;44.800;10.326;2022-12-18T06:02:24;3.90;99.90
32348;DHT22;18821;44.800;10.326;2022-12-18T06:04:50;4.00;99.90
32348;DHT22;18821;44.800;10.326;2022-12-18T06:07:15;4.00;99.90
32348;DHT22;18821;44.800;10.326;2022-12-18T06:09:41;4.20;99.90
32348;DHT22;18821;44.800;10.326;2022-12-18T06:12:07;4.30;99.90
32348;DHT22;18821;44.800;10.326;2022-12-18T06:14:33;4.30;99.90
32348;DHT22;18821;44.800;10.326;2022-12-18T06:16:59;4.40;99.90
32348;DHT22;18821;44.800;10.326;2022-12-18T06:19:25;4.40;99.90
32348;DHT22;18821;44.800;10.326;2022-12-18T06:21:51;4.50;99.90
32348;DHT22;18821;44.800;10.326;2022-12-18T06:24:17;4.30;99.90
32348;DHT22;18821;44.800;10.326;2022-12-18T06:26:43;4.40;99.90
32348;DHT22;18821;44.800;10.326;2022-12-18T06:29:08;4.50;99.90
32348;DHT22;18821;44.800;10.326;2022-12-18T06:31:35;4.40;99.90
32348;DHT22;18821;44.800;10.326;2022-12-18T06:34:04;4.40;99.90
32348;DHT22;18821;44.800;10.326;2022-12-18T06:36:30;4.40;99.90
32348;DHT22;18821;44.800;10.326;2022-12-18T06:38:57;4.20;99.90
32348;DHT22;18821;44.800;10.326;2022-12-18T06:41:23;4.30;99.90
32348;DHT22;18821;44.800;10.326;2022-12-18T06:43:49;4.30;99.90
32348;DHT22;18821;44.800;10.326;2022-12-18T06:46:15;4.30;99.90
32348;DHT22;18821;44.800;10.326;2022-12-18T06:48:41;4.30;99.90
32348;DHT22;18821;44.800;10.326;2022-12-18T06:51:07;4.20;99.90
32348;DHT22;18821;44.800;10.326;2022-12-18T06:53:33;4.30;99.90
32348;DHT22;18821;44.800;10.326;2022-12-18T06:56:03;4.30;99.90
32348;DHT22;18821;44.800;10.326;2022-12-18T06:58:30;4.30;99.90
32348;DHT22;18821;44.800;10.326;2022-12-18T07:01:00;4.30;99.90
32348;DHT22;18821;44.800;10.326;2022-12-18T07:03:27;4.30;99.90
32348;DHT22;18821;44.800;10.326;2022-12-18T07:05:53;4.40;99.90
32348;DHT22;18821;44.800;10.326;2022-12-18T07:08:19;4.50;99.90
32348;DHT22;18821;44.800;10.326;2022-12-18T07:10:45;4.50;99.90
32348;DHT22;18821;44.800;10.326;2022-12-18T07:13:11;4.50;99.90
32348;DHT22;18821;44.800;10.326;2022-12-18T07:15:36;4.50;99.90
32348;DHT22;18821;44.800;10.326;2022-12-18T07:18:02;4.40;99.90
32348;DHT22;18821;44.800;10.326;2022-12-18T07:20:29;4.40;99.90
32348;DHT22;18821;44.800;10.326;2022-12-18T07:22:55;4.50;99.90
32348;DHT22;18821;44.800;10.326;2022-12-18T07:25:21;4.60;99.90
32348;DHT22;18821;44.800;10.326;2022-12-18T07:27:47;4.40;99.90
32348;DHT22;18821;44.800;10.326;2022-12-18T07:30:13;4.50;99.90
32348;DHT22;18821;44.800;10.326;2022-12-18T07:32:39;4.40;99.90
32348;DHT22;18821;44.800;10.326;2022-12-18T07:35:05;4.50;99.90
32348;DHT22;18821;44.800;10.326;2022-12-18T07:37:31;4.50;99.90
32348;DHT22;18821;44.800;10.326;2022-12-18T07:39:56;4.60;99.90
32348;DHT22;18821;44.800;10.326;2022-12-18T07:42:22;4.60;99.90
32348;DHT22;18821;44.800;10.326;2022-12-18T07:45:01;4.60;99.90
32348;DHT22;18821;44.800;10.326;2022-12-18T07:47:28;4.60;99.90
32348;DHT22;18821;44.800;10.326;2022-12-18T07:49:54;4.60;99.90
32348;DHT22;18821;44.800;10.326;2022-12-18T07:52:20;4.60;99.90
32348;DHT22;18821;44.800;10.326;2022-12-18T07:54:46;4.60;99.90
32348;DHT22;18821;44.800;10.326;2022-12-18T07:57:14;4.70;99.90
32348;DHT22;18821;44.800;10.326;2022-12-18T07:59:44;4.70;99.90
32348;DHT22;18821;44.800;10.326;2022-12-18T08:02:10;4.80;99.90
32348;DHT22;18821;44.800;10.326;2022-12-18T08:04:36;4.80;99.90
32348;DHT22;18821;44.800;10.326;2022-12-18T08:07:02;4.80;99.90
32348;DHT22;18821;44.800;10.326;2022-12-18T08:09:28;4.70;99.90
32348;DHT22;18821;44.800;10.326;2022-12-18T08:11:54;4.70;99.90
32348;DHT22;18821;44.800;10.326;2022-12-18T08:14:20;4.80;99.90
32348;DHT22;18821;44.800;10.326;2022-12-18T08:16:46;4.80;99.90
32348;DHT22;18821;44.800;10.326;2022-12-18T08:19:12;4.80;99.90
32348;DHT22;18821;44.800;10.326;2022-12-18T08:21:41;4.80;99.90
32348;DHT22;18821;44.800;10.326;2022-12-18T08:24:09;4.80;99.90
32348;DHT22;18821;44.800;10.326;2022-12-18T08:26:36;4.80;99.90
32348;DHT22;18821;44.800;10.326;2022-12-18T08:29:02;4.80;99.90
32348;DHT22;18821;44.800;10.326;2022-12-18T08:31:29;4.70;99.90
32348;DHT22;18821;44.800;10.326;2022-12-18T08:33:56;4.70;99.90
32348;DHT22;18821;44.800;10.326;2022-12-18T08:36:23;4.80;99.90
32348;DHT22;18821;44.800;10.326;2022-12-18T08:38:49;4.80;99.90
32348;DHT22;18821;44.800;10.326;2022-12-18T08:41:16;4.90;99.90
32348;DHT22;18821;44.800;10.326;2022-12-18T08:43:42;5.00;99.90
32348;DHT22;18821;44.800;10.326;2022-12-18T08:46:36;5.00;99.90
32348;DHT22;18821;44.800;10.326;2022-12-18T08:49:03;5.00;99.90
32348;DHT22;18821;44.800;10.326;2022-12-18T08:51:29;5.00;99.90
32348;DHT22;18821;44.800;10.326;2022-12-18T08:53:55;4.90;99.90
32348;DHT22;18821;44.800;10.326;2022-12-18T08:56:21;4.80;99.90
32348;DHT22;18821;44.800;10.326;2022-12-18T08:58:52;4.80;99.90
32348;DHT22;18821;44.800;10.326;2022-12-18T09:01:18;4.80;99.90
32348;DHT22;18821;44.800;10.326;2022-12-18T09:03:43;4.80;99.90
32348;DHT22;18821;44.800;10.326;2022-12-18T09:06:17;4.70;99.90
32348;DHT22;18821;44.800;10.326;2022-12-18T09:08:44;4.70;99.90
32348;DHT22;18821;44.800;10.326;2022-12-18T09:11:17;4.60;99.90
32348;DHT22;18821;44.800;10.326;2022-12-18T09:13:44;4.50;99.90
32348;DHT22;18821;44.800;10.326;2022-12-18T09:16:10;4.60;99.90
32348;DHT22;18821;44.800;10.326;2022-12-18T09:18:38;4.60;99.90
32348;DHT22;18821;44.800;10.326;2022-12-18T09:21:12;4.60;99.90
32348;DHT22;18821;44.800;10.326;2022-12-18T09:23:39;4.70;99.90
32348;DHT22;18821;44.800;10.326;2022-12-18T09:26:05;4.80;99.90
32348;DHT22;18821;44.800;10.326;2022-12-18T09:28:31;5.00;99.90
32348;DHT22;18821;44.800;10.326;2022-12-18T09:30:57;5.00;99.90
32348;DHT22;18821;44.800;10.326;2022-12-18T09:33:23;5.00;99.90
32348;DHT22;18821;44.800;10.326;2022-12-18T09:35:49;5.20;99.90
32348;DHT22;18821;44.800;10.326;2022-12-18T09:38:17;5.30;99.90
32348;DHT22;18821;44.800;10.326;2022-12-18T09:43:49;5.20;99.90
32348;DHT22;18821;44.800;10.326;2022-12-18T09:46:17;5.20;99.90
32348;DHT22;18821;44.800;10.326;2022-12-18T09:48:48;5.40;99.90
32348;DHT22;18821;44.800;10.326;2022-12-18T09:52:05;5.50;99.90
32348;DHT22;18821;44.800;10.326;2022-12-18T09:54:14;5.60;99.90
32348;DHT22;18821;44.800;10.326;2022-12-18T09:56:43;5.60;99.90
32348;DHT22;18821;44.800;10.326;2022-12-18T09:59:30;5.70;99.90
32348;DHT22;18821;44.800;10.326;2022-12-18T10:01:57;5.90;99.90
32348;DHT22;18821;44.800;10.326;2022-12-18T10:04:24;6.00;99.90
32348;DHT22;18821;44.800;10.326;2022-12-18T10:06:55;6.00;99.90
32348;DHT22;18821;44.800;10.326;2022-12-18T10:19:56;6.30;99.90
32348;DHT22;18821;44.800;10.326;2022-12-18T10:26:03;6.00;99.90
32348;DHT22;18821;44.800;10.326;2022-12-18T10:28:31;6.00;99.90
32348;DHT22;18821;44.800;10.326;2022-12-18T10:30:58;6.10;99.90
32348;DHT22;18821;44.800;10.326;2022-12-18T10:33:28;6.00;99.90
32348;DHT22;18821;44.800;10.326;2022-12-18T10:35:55;6.00;99.90
32348;DHT22;18821;44.800;10.326;2022-12-18T10:38:32;5.90;99.90
32348;DHT22;18821;44.800;10.326;2022-12-18T10:41:22;6.00;99.90
32348;DHT22;18821;44.800;10.326;2022-12-18T10:44:19;6.10;99.90
32348;DHT22;18821;44.800;10.326;2022-12-18T10:46:51;6.40;99.90
32348;DHT22;18821;44.800;10.326;2022-12-18T10:49:29;6.50;99.90
32348;DHT22;18821;44.800;10.326;2022-12-18T10:52:18;6.70;99.90
32348;DHT22;18821;44.800;10.326;2022-12-18T10:54:54;6.90;99.90
32348;DHT22;18821;44.800;10.326;2022-12-18T10:57:40;7.00;99.90
32348;DHT22;18821;44.800;10.326;2022-12-18T11:00:28;7.00;99.90
32348;DHT22;18821;44.800;10.326;2022-12-18T11:02:55;7.20;99.90
32348;DHT22;18821;44.800;10.326;2022-12-18T11:05:31;7.30;99.90
32348;DHT22;18821;44.800;10.326;2022-12-18T11:07:59;7.00;99.90
32348;DHT22;18821;44.800;10.326;2022-12-18T11:10:37;6.60;99.90
32348;DHT22;18821;44.800;10.326;2022-12-18T11:13:21;6.60;99.90
32348;DHT22;18821;44.800;10.326;2022-12-18T11:15:48;6.70;99.90
32348;DHT22;18821;44.800;10.326;2022-12-18T11:18:33;6.90;99.90
32348;DHT22;18821;44.800;10.326;2022-12-18T11:21:08;6.90;99.90
32348;DHT22;18821;44.800;10.326;2022-12-18T11:23:36;6.70;99.90
32348;DHT22;18821;44.800;10.326;2022-12-18T11:26:04;6.70;99.90
32348;DHT22;18821;44.800;10.326;2022-12-18T11:28:41;6.60;99.90
32348;DHT22;18821;44.800;10.326;2022-12-18T11:33:44;6.60;99.90
32348;DHT22;18821;44.800;10.326;2022-12-18T11:36:12;6.90;99.90
32348;DHT22;18821;44.800;10.326;2022-12-18T11:38:40;7.10;99.90
32348;DHT22;18821;44.800;10.326;2022-12-18T11:41:42;7.40;99.90
32348;DHT22;18821;44.800;10.326;2022-12-18T11:44:38;7.60;99.90
32348;DHT22;18821;44.800;10.326;2022-12-18T11:47:21;7.80;99.90
32348;DHT22;18821;44.800;10.326;2022-12-18T11:49:52;7.90;99.90
32348;DHT22;18821;44.800;10.326;2022-12-18T11:52:37;8.20;99.90
32348;DHT22;18821;44.800;10.326;2022-12-18T11:55:13;8.30;99.90
32348;DHT22;18821;44.800;10.326;2022-12-18T12:00:56;8.80;99.90
32348;DHT22;18821;44.800;10.326;2022-12-18T12:04:07;8.90;99.90
32348;DHT22;18821;44.800;10.326;2022-12-18T12:06:58;8.50;99.90
32348;DHT22;18821;44.800;10.326;2022-12-18T12:20:33;6.50;99.90
32348;DHT22;18821;44.800;10.326;2022-12-18T12:26:21;6.30;99.90
32348;DHT22;18821;44.800;10.326;2022-12-18T12:29:00;6.30;99.90
32348;DHT22;18821;44.800;10.326;2022-12-18T12:31:31;6.40;99.90
32348;DHT22;18821;44.800;10.326;2022-12-18T12:34:26;6.30;99.90
32348;DHT22;18821;44.800;10.326;2022-12-18T12:39:51;6.10;99.90
32348;DHT22;18821;44.800;10.326;2022-12-18T12:42:45;6.10;99.90
32348;DHT22;18821;44.800;10.326;2022-12-18T12:45:49;6.30;99.90
32348;DHT22;18821;44.800;10.326;2022-12-18T12:48:34;6.40;99.90
32348;DHT22;18821;44.800;10.326;2022-12-18T12:51:06;6.70;99.90
32348;DHT22;18821;44.800;10.326;2022-12-18T12:53:36;6.90;99.90
32348;DHT22;18821;44.800;10.326;2022-12-18T12:56:04;7.00;99.90
32348;DHT22;18821;44.800;10.326;2022-12-18T13:09:30;7.90;99.90
32348;DHT22;18821;44.800;10.326;2022-12-18T13:12:05;8.00;99.90
32348;DHT22;18821;44.800;10.326;2022-12-18T13:14:54;7.70;99.90
32348;DHT22;18821;44.800;10.326;2022-12-18T13:17:37;7.30;99.90
32348;DHT22;18821;44.800;10.326;2022-12-18T13:20:04;7.30;99.90
32348;DHT22;18821;44.800;10.326;2022-12-18T13:22:43;7.20;99.90
32348;DHT22;18821;44.800;10.326;2022-12-18T13:28:20;7.00;99.90
32348;DHT22;18821;44.800;10.326;2022-12-18T13:30:57;7.00;99.90
32348;DHT22;18821;44.800;10.326;2022-12-18T13:36:16;7.20;99.90
32348;DHT22;18821;44.800;10.326;2022-12-18T13:41:34;7.20;99.90
32348;DHT22;18821;44.800;10.326;2022-12-18T13:44:34;7.10;99.90
32348;DHT22;18821;44.800;10.326;2022-12-18T13:47:02;7.20;99.90
32348;DHT22;18821;44.800;10.326;2022-12-18T13:49:40;7.20;99.90
32348;DHT22;18821;44.800;10.326;2022-12-18T13:52:19;7.20;99.90
32348;DHT22;18821;44.800;10.326;2022-12-18T13:54:57;7.30;99.90
32348;DHT22;18821;44.800;10.326;2022-12-18T13:57:38;7.40;99.90
32348;DHT22;18821;44.800;10.326;2022-12-18T14:02:46;7.60;99.90
32348;DHT22;18821;44.800;10.326;2022-12-18T14:07:48;7.40;99.90
32348;DHT22;18821;44.800;10.326;2022-12-18T14:10:16;7.20;99.90
32348;DHT22;18821;44.800;10.326;2022-12-18T14:12:47;7.20;99.90
32348;DHT22;18821;44.800;10.326;2022-12-18T14:20:49;7.10;99.90
32348;DHT22;18821;44.800;10.326;2022-12-18T14:23:38;7.20;99.90
32348;DHT22;18821;44.800;10.326;2022-12-18T14:26:24;7.20;99.90
32348;DHT22;18821;44.800;10.326;2022-12-18T14:28:52;7.20;99.90
32348;DHT22;18821;44.800;10.326;2022-12-18T14:31:25;7.30;99.90
32348;DHT22;18821;44.800;10.326;2022-12-18T14:33:52;7.30;99.90
32348;DHT22;18821;44.800;10.326;2022-12-18T14:36:21;7.40;99.90
32348;DHT22;18821;44.800;10.326;2022-12-18T14:38:52;7.40;99.90
32348;DHT22;18821;44.800;10.326;2022-12-18T14:41:20;7.30;99.90
32348;DHT22;18821;44.800;10.326;2022-12-18T14:43:49;7.20;99.90
32348;DHT22;18821;44.800;10.326;2022-12-18T14:46:36;7.20;99.90
32348;DHT22;18821;44.800;10.326;2022-12-18T14:49:14;7.20;99.90
32348;DHT22;18821;44.800;10.326;2022-12-18T14:51:48;7.20;99.90
32348;DHT22;18821;44.800;10.326;2022-12-18T14:54:17;6.90;99.90
32348;DHT22;18821;44.800;10.326;2022-12-18T14:56:49;6.90;99.90
32348;DHT22;18821;44.800;10.326;2022-12-18T14:59:22;7.00;99.90
32348;DHT22;18821;44.800;10.326;2022-12-18T15:04:40;6.90;99.90
32348;DHT22;18821;44.800;10.326;2022-12-18T15:09:36;6.60;99.90
32348;DHT22;18821;44.800;10.326;2022-12-18T15:12:03;6.50;99.90
32348;DHT22;18821;44.800;10.326;2022-12-18T15:14:38;6.50;99.90
32348;DHT22;18821;44.800;10.326;2022-12-18T15:17:14;6.40;99.90
32348;DHT22;18821;44.800;10.326;2022-12-18T15:19:43;6.30;99.90
32348;DHT22;18821;44.800;10.326;2022-12-18T15:24:43;6.10;99.90
32348;DHT22;18821;44.800;10.326;2022-12-18T15:27:32;6.00;99.90
32348;DHT22;18821;44.800;10.326;2022-12-18T15:32:36;5.90;99.90
32348;DHT22;18821;44.800;10.326;2022-12-18T15:35:12;5.90;99.90
32348;DHT22;18821;44.800;10.326;2022-12-18T15:37:39;5.90;99.90
32348;DHT22;18821;44.800;10.326;2022-12-18T15:40:05;5.80;99.90
32348;DHT22;18821;44.800;10.326;2022-12-18T15:42:31;5.70;99.90
32348;DHT22;18821;44.800;10.326;2022-12-18T15:45:16;5.70;99.90
32348;DHT22;18821;44.800;10.326;2022-12-18T15:47:42;5.70;99.90
32348;DHT22;18821;44.800;10.326;2022-12-18T15:50:08;5.70;99.90
32348;DHT22;18821;44.800;10.326;2022-12-18T15:52:45;5.60;99.90
32348;DHT22;18821;44.800;10.326;2022-12-18T15:55:13;5.60;99.90
32348;DHT22;18821;44.800;10.326;2022-12-18T15:57:58;5.60;99.90
32348;DHT22;18821;44.800;10.326;2022-12-18T16:00:24;5.50;99.90
32348;DHT22;18821;44.800;10.326;2022-12-18T16:02:50;5.50;99.90
32348;DHT22;18821;44.800;10.326;2022-12-18T16:05:18;5.50;99.90
32348;DHT22;18821;44.800;10.326;2022-12-18T16:07:44;5.40;99.90
32348;DHT22;18821;44.800;10.326;2022-12-18T16:10:11;5.40;99.90
32348;DHT22;18821;44.800;10.326;2022-12-18T16:12:37;5.40;99.90
32348;DHT22;18821;44.800;10.326;2022-12-18T16:15:05;5.30;99.90
32348;DHT22;18821;44.800;10.326;2022-12-18T16:17:31;5.30;99.90
32348;DHT22;18821;44.800;10.326;2022-12-18T16:19:57;5.20;99.90
32348;DHT22;18821;44.800;10.326;2022-12-18T16:22:28;5.20;99.90
32348;DHT22;18821;44.800;10.326;2022-12-18T16:24:55;5.20;99.90
32348;DHT22;18821;44.800;10.326;2022-12-18T16:27:22;5.20;99.90
32348;DHT22;18821;44.800;10.326;2022-12-18T16:29:48;5.20;99.90
32348;DHT22;18821;44.800;10.326;2022-12-18T16:32:18;5.10;99.90
32348;DHT22;18821;44.800;10.326;2022-12-18T16:34:44;5.10;99.90
32348;DHT22;18821;44.800;10.326;2022-12-18T16:37:19;5.00;99.90
32348;DHT22;18821;44.800;10.326;2022-12-18T16:39:45;5.10;99.90
32348;DHT22;18821;44.800;10.326;2022-12-18T16:42:16;5.00;99.90
32348;DHT22;18821;44.800;10.326;2022-12-18T16:44:48;5.10;99.90
32348;DHT22;18821;44.800;10.326;2022-12-18T16:47:15;5.10;99.90
32348;DHT22;18821;44.800;10.326;2022-12-18T16:49:42;5.10;99.90
32348;DHT22;18821;44.800;10.326;2022-12-18T16:52:14;5.10;99.90
32348;DHT22;18821;44.800;10.326;2022-12-18T16:54:40;5.10;99.90
32348;DHT22;18821;44.800;10.326;2022-12-18T16:57:05;5.10;99.90
32348;DHT22;18821;44.800;10.326;2022-12-18T16:59:32;5.10;99.90
32348;DHT22;18821;44.800;10.326;2022-12-18T17:02:00;5.00;99.90
32348;DHT22;18821;44.800;10.326;2022-12-18T17:04:26;5.10;99.90
32348;DHT22;18821;44.800;10.326;2022-12-18T17:06:52;5.20;99.90
32348;DHT22;18821;44.800;10.326;2022-12-18T17:09:19;5.20;99.90
32348;DHT22;18821;44.800;10.326;2022-12-18T17:11:50;5.20;99.90
32348;DHT22;18821;44.800;10.326;2022-12-18T17:14:18;5.30;99.90
32348;DHT22;18821;44.800;10.326;2022-12-18T17:16:44;5.30;99.90
32348;DHT22;18821;44.800;10.326;2022-12-18T17:19:11;5.20;99.90
32348;DHT22;18821;44.800;10.326;2022-12-18T17:21:37;5.30;99.90
32348;DHT22;18821;44.800;10.326;2022-12-18T17:24:03;5.20;99.90
32348;DHT22;18821;44.800;10.326;2022-12-18T17:26:30;5.20;99.90
32348;DHT22;18821;44.800;10.326;2022-12-18T17:28:57;5.20;99.90
32348;DHT22;18821;44.800;10.326;2022-12-18T17:31:28;5.10;99.90
32348;DHT22;18821;44.800;10.326;2022-12-18T17:33:54;5.10;99.90
32348;DHT22;18821;44.800;10.326;2022-12-18T17:36:21;5.10;99.90
32348;DHT22;18821;44.800;10.326;2022-12-18T17:38:52;5.20;99.90